Terminal Aerodrome Forecast
Issued by NWS

Home | Current Version | Previous Version | Text Only | Print | Product List | Glossary On
Versions: 1 2 3 4 5 6 7 8 9 10 11 12 13 14 15 16 17 18 19
000
FTUS43 KMPX 190100 AAA
TAFRWF
TAF AMD
KRWF 190133Z 1902/1924 13016G25KT P6SM BKN100
     FM191000 16017G27KT P6SM SCT050 BKN100
     FM191500 19015G23KT P6SM VCSH BKN060
     FM192200 23013KT P6SM SCT100=

USA.gov is the U.S. government's official web portal to all federal, state and local government web resources and services.